Terminal Aerodrome Forecast
Issued by NWS

Home | Current Version | Previous Version | Text Only | Print | Product List | Glossary On
Versions: 1 2 3 4 5 6 7 8 9 10 11 12 13 14 15 16 17 18 19 20 21 22 23 24 25 26 27 28 29 30 31 32 33 34 35 36 37
645
FTUS41 KALY 041648 AAB
TAFPSF
TAF AMD
KPSF 041648Z 0417/0512 07007KT 6SM -RA BR SCT006 OVC017
      TEMPO 0417/0419 2SM -RA BR BKN006 OVC012
     FM042000 06005KT 2SM -RA BR OVC006
     FM050100 02006KT 5SM -DZ BR OVC005=

USA.gov is the U.S. government's official web portal to all federal, state and local government web resources and services.